sensor_id;sensor_type;location;lat;lon;timestamp;pressure;altitude;pressure_sealevel;temperature;humidity
76687;BME280;65615;47.378;19.344;2023-02-15T05:26:23;101916.62;;;-3.97;100.00
76687;BME280;65615;47.378;19.344;2023-02-15T05:31:12;101925.06;;;-3.87;100.00
76687;BME280;65615;47.378;19.344;2023-02-15T05:35:31;101924.13;;;-3.85;100.00
76687;BME280;65615;47.378;19.344;2023-02-15T05:39:39;101925.91;;;-3.87;100.00
76687;BME280;65615;47.378;19.344;2023-02-15T05:43:49;101937.81;;;-3.80;100.00
76687;BME280;65615;47.378;19.344;2023-02-15T05:48:18;101942.09;;;-3.77;100.00
76687;BME280;65615;47.378;19.344;2023-02-15T05:52:28;101946.50;;;-3.84;100.00
76687;BME280;65615;47.378;19.344;2023-02-15T05:56:40;101951.66;;;-3.84;100.00
76687;BME280;65615;47.378;19.344;2023-02-15T06:01:06;101947.25;;;-3.77;100.00
76687;BME280;65615;47.378;19.344;2023-02-15T06:05:37;101957.47;;;-3.73;100.00
76687;BME280;65615;47.378;19.344;2023-02-15T06:09:43;101949.59;;;-3.64;100.00
76687;BME280;65615;47.378;19.344;2023-02-15T06:13:53;101953.00;;;-3.62;100.00
76687;BME280;65615;47.378;19.344;2023-02-15T06:17:59;101958.91;;;-3.55;100.00
76687;BME280;65615;47.378;19.344;2023-02-15T06:22:13;101952.88;;;-3.56;100.00
76687;BME280;65615;47.378;19.344;2023-02-15T06:26:48;101952.78;;;-3.50;100.00
76687;BME280;65615;47.378;19.344;2023-02-15T06:31:36;101963.00;;;-3.43;100.00
76687;BME280;65615;47.378;19.344;2023-02-15T06:36:20;101955.75;;;-3.23;100.00
76687;BME280;65615;47.378;19.344;2023-02-15T06:40:22;101959.81;;;-3.12;100.00
76687;BME280;65615;47.378;19.344;2023-02-15T06:44:27;101951.91;;;-3.04;100.00
76687;BME280;65615;47.378;19.344;2023-02-15T06:48:47;101964.50;;;-2.88;100.00
76687;BME280;65615;47.378;19.344;2023-02-15T06:52:56;101963.34;;;-2.73;100.00
76687;BME280;65615;47.378;19.344;2023-02-15T06:57:07;101959.56;;;-2.57;100.00
76687;BME280;65615;47.378;19.344;2023-02-15T07:01:12;101963.47;;;-2.39;100.00
76687;BME280;65615;47.378;19.344;2023-02-15T07:05:17;101964.81;;;-2.23;100.00
76687;BME280;65615;47.378;19.344;2023-02-15T07:09:22;101967.84;;;-2.06;100.00
76687;BME280;65615;47.378;19.344;2023-02-15T07:13:25;101971.69;;;-1.86;100.00
76687;BME280;65615;47.378;19.344;2023-02-15T07:17:29;101967.53;;;-1.57;100.00
76687;BME280;65615;47.378;19.344;2023-02-15T07:21:37;101977.34;;;-1.36;100.00
76687;BME280;65615;47.378;19.344;2023-02-15T07:25:41;101974.41;;;-1.24;100.00
76687;BME280;65615;47.378;19.344;2023-02-15T07:29:45;101969.37;;;-0.98;100.00
76687;BME280;65615;47.378;19.344;2023-02-15T07:33:50;101955.53;;;-0.68;100.00
76687;BME280;65615;47.378;19.344;2023-02-15T07:37:54;101967.53;;;-0.35;100.00
76687;BME280;65615;47.378;19.344;2023-02-15T07:42:21;101965.22;;;0.10;100.00
76687;BME280;65615;47.378;19.344;2023-02-15T07:46:48;101958.81;;;0.71;100.00
76687;BME280;65615;47.378;19.344;2023-02-15T07:51:14;101959.59;;;1.22;100.00
76687;BME280;65615;47.378;19.344;2023-02-15T07:55:36;101961.22;;;1.69;100.00
76687;BME280;65615;47.378;19.344;2023-02-15T07:59:59;101959.97;;;2.01;100.00
76687;BME280;65615;47.378;19.344;2023-02-15T08:04:14;101945.50;;;2.36;100.00
76687;BME280;65615;47.378;19.344;2023-02-15T08:08:26;101945.75;;;2.70;100.00
76687;BME280;65615;47.378;19.344;2023-02-15T08:12:33;101944.84;;;3.10;100.00
76687;BME280;65615;47.378;19.344;2023-02-15T08:17:07;101939.16;;;3.39;100.00
76687;BME280;65615;47.378;19.344;2023-02-15T08:21:32;101946.13;;;3.76;100.00
76687;BME280;65615;47.378;19.344;2023-02-15T08:25:59;101933.00;;;4.30;98.71
76687;BME280;65615;47.378;19.344;2023-02-15T08:30:07;101934.19;;;4.57;98.42
76687;BME280;65615;47.378;19.344;2023-02-15T08:34:24;101928.16;;;4.89;95.42
76687;BME280;65615;47.378;19.344;2023-02-15T08:38:29;101932.44;;;5.07;93.29
76687;BME280;65615;47.378;19.344;2023-02-15T08:42:35;101938.87;;;5.17;91.16
76687;BME280;65615;47.378;19.344;2023-02-15T08:46:42;101925.56;;;5.69;90.18
76687;BME280;65615;47.378;19.344;2023-02-15T08:50:45;101924.22;;;5.93;87.52
76687;BME280;65615;47.378;19.344;2023-02-15T08:54:50;101927.06;;;6.04;87.37
76687;BME280;65615;47.378;19.344;2023-02-15T08:58:55;101925.19;;;6.06;87.75
76687;BME280;65615;47.378;19.344;2023-02-15T09:03:13;101926.31;;;6.89;85.62
76687;BME280;65615;47.378;19.344;2023-02-15T09:07:30;101916.84;;;7.29;83.12
76687;BME280;65615;47.378;19.344;2023-02-15T09:11:38;101923.66;;;7.46;80.32
76687;BME280;65615;47.378;19.344;2023-02-15T09:15:48;101919.94;;;8.03;78.04
76687;BME280;65615;47.378;19.344;2023-02-15T09:19:53;101913.25;;;8.24;78.79
76687;BME280;65615;47.378;19.344;2023-02-15T09:23:59;101915.25;;;8.73;75.03
76687;BME280;65615;47.378;19.344;2023-02-15T09:28:11;101918.59;;;9.25;72.52
76687;BME280;65615;47.378;19.344;2023-02-15T09:32:14;101915.25;;;9.59;70.90
76687;BME280;65615;47.378;19.344;2023-02-15T09:36:26;101906.28;;;9.62;69.24
76687;BME280;65615;47.378;19.344;2023-02-15T09:40:31;101913.50;;;9.94;69.04
76687;BME280;65615;47.378;19.344;2023-02-15T09:48:48;101905.38;;;10.56;66.68
76687;BME280;65615;47.378;19.344;2023-02-15T10:20:29;101874.28;;;11.03;60.39
76687;BME280;65615;47.378;19.344;2023-02-15T10:25:07;101879.69;;;11.24;59.30
76687;BME280;65615;47.378;19.344;2023-02-15T10:29:35;101870.16;;;11.86;56.90
76687;BME280;65615;47.378;19.344;2023-02-15T10:38:38;101860.59;;;11.63;58.21
76687;BME280;65615;47.378;19.344;2023-02-15T11:05:35;101850.13;;;12.66;52.77
76687;BME280;65615;47.378;19.344;2023-02-15T11:09:51;101849.69;;;13.31;50.99
76687;BME280;65615;47.378;19.344;2023-02-15T11:13:59;101840.06;;;13.00;51.26
76687;BME280;65615;47.378;19.344;2023-02-15T11:22:33;101831.72;;;13.63;50.16
76687;BME280;65615;47.378;19.344;2023-02-15T11:30:57;101828.34;;;14.38;46.49
76687;BME280;65615;47.378;19.344;2023-02-15T11:35:55;101820.16;;;15.22;46.25
76687;BME280;65615;47.378;19.344;2023-02-15T11:40:33;101818.12;;;15.34;44.47
76687;BME280;65615;47.378;19.344;2023-02-15T11:48:55;101811.19;;;15.86;44.77
76687;BME280;65615;47.378;19.344;2023-02-15T11:53:10;101798.44;;;16.41;43.55
76687;BME280;65615;47.378;19.344;2023-02-15T12:01:42;101798.19;;;15.83;43.16
76687;BME280;65615;47.378;19.344;2023-02-15T12:06:29;101784.81;;;16.00;42.30
76687;BME280;65615;47.378;19.344;2023-02-15T12:11:02;101789.19;;;15.49;43.11
76687;BME280;65615;47.378;19.344;2023-02-15T12:15:15;101779.56;;;17.51;39.13
76687;BME280;65615;47.378;19.344;2023-02-15T12:20:44;101771.88;;;16.31;40.50
76687;BME280;65615;47.378;19.344;2023-02-15T12:24:47;101771.03;;;16.56;39.75
76687;BME280;65615;47.378;19.344;2023-02-15T12:29:16;101759.13;;;16.17;39.42
76687;BME280;65615;47.378;19.344;2023-02-15T12:33:44;101761.03;;;17.90;36.31
76687;BME280;65615;47.378;19.344;2023-02-15T12:37:57;101757.00;;;17.54;36.74
76687;BME280;65615;47.378;19.344;2023-02-15T12:42:45;101751.78;;;17.36;37.01
76687;BME280;65615;47.378;19.344;2023-02-15T12:47:19;101744.94;;;17.34;36.31
76687;BME280;65615;47.378;19.344;2023-02-15T12:51:50;101741.59;;;17.32;36.83
76687;BME280;65615;47.378;19.344;2023-02-15T12:56:08;101725.59;;;17.72;37.24
76687;BME280;65615;47.378;19.344;2023-02-15T13:04:29;101728.13;;;17.98;35.30
76687;BME280;65615;47.378;19.344;2023-02-15T13:08:45;101721.19;;;17.07;36.25
76687;BME280;65615;47.378;19.344;2023-02-15T13:13:16;101710.25;;;17.74;36.00
76687;BME280;65615;47.378;19.344;2023-02-15T13:17:30;101697.22;;;17.63;35.58
76687;BME280;65615;47.378;19.344;2023-02-15T13:21:37;101702.19;;;17.42;35.40
76687;BME280;65615;47.378;19.344;2023-02-15T13:25:45;101707.75;;;17.56;35.79
76687;BME280;65615;47.378;19.344;2023-02-15T13:29:55;101696.00;;;17.17;36.57
76687;BME280;65615;47.378;19.344;2023-02-15T13:34:17;101691.59;;;18.76;34.05
76687;BME280;65615;47.378;19.344;2023-02-15T13:52:05;101687.47;;;18.02;35.72
76687;BME280;65615;47.378;19.344;2023-02-15T14:22:22;101672.75;;;16.10;39.74
76687;BME280;65615;47.378;19.344;2023-02-15T14:30:42;101683.19;;;16.29;38.45
76687;BME280;65615;47.378;19.344;2023-02-15T14:40:33;101676.25;;;16.10;38.65
76687;BME280;65615;47.378;19.344;2023-02-15T14:44:42;101678.69;;;15.53;39.25
76687;BME280;65615;47.378;19.344;2023-02-15T14:49:04;101679.75;;;14.35;42.01
76687;BME280;65615;47.378;19.344;2023-02-15T14:57:34;101683.75;;;13.46;44.72
76687;BME280;65615;47.378;19.344;2023-02-15T15:01:39;101670.72;;;13.62;44.44
76687;BME280;65615;47.378;19.344;2023-02-15T15:05:54;101671.19;;;12.21;48.52
76687;BME280;65615;47.378;19.344;2023-02-15T15:18:48;101664.56;;;9.94;57.87
76687;BME280;65615;47.378;19.344;2023-02-15T15:23:04;101670.41;;;9.29;60.59
76687;BME280;65615;47.378;19.344;2023-02-15T15:31:50;101653.22;;;8.66;64.58
76687;BME280;65615;47.378;19.344;2023-02-15T15:49:12;101652.28;;;7.93;69.03
76687;BME280;65615;47.378;19.344;2023-02-15T15:53:22;101646.91;;;7.69;70.36
76687;BME280;65615;47.378;19.344;2023-02-15T15:57:30;101630.47;;;7.40;71.47
76687;BME280;65615;47.378;19.344;2023-02-15T16:01:39;101644.34;;;7.30;72.61
76687;BME280;65615;47.378;19.344;2023-02-15T16:05:44;101643.53;;;7.03;74.07
76687;BME280;65615;47.378;19.344;2023-02-15T16:10:23;101644.44;;;6.89;74.97
76687;BME280;65615;47.378;19.344;2023-02-15T16:14:34;101647.75;;;6.78;75.72
76687;BME280;65615;47.378;19.344;2023-02-15T16:18:38;101644.91;;;6.69;76.78
